Time;durP1;ratioP1;P1;durP2;ratioP2;P2;SDS_P1;SDS_P2;PMS_P1;PMS_P2;Temp;Humidity;BMP_temperature;BMP_pressure;BME280_temperature;BME280_humidity;BME280_pressure;Samples;Min_cycle;Max_cycle;Signal;HPM_P1;HPM_P2
2021/08/11 00:09:58;;;;;;;10.48;6.65;;;;;;;16.45;100.00;100342.94;714064;1205;114717;-86
2021/08/11 00:25:00;;;;;;;8.97;5.73;;;;;;;16.20;100.00;100335.09;714155;1202;115350;-84
2021/08/11 00:40:05;;;;;;;10.20;6.30;;;;;;;15.94;100.00;100319.45;714002;1205;114740;-83
2021/08/11 00:55:08;;;;;;;12.00;6.40;;;;;;;15.96;100.00;100313.00;714295;1206;114968;-84
2021/08/11 01:10:11;;;;;;;12.18;6.78;;;;;;;15.61;100.00;100330.06;713876;1202;114524;-83
2021/08/11 01:25:28;;;;;;;16.33;8.35;;;;;;;15.40;100.00;100328.78;714049;1174;114339;-83
2021/08/11 01:40:35;;;;;;;9.03;6.48;;;;;;;15.43;100.00;100319.69;714022;1202;114998;-83
2021/08/11 01:55:38;;;;;;;10.45;7.30;;;;;;;15.30;100.00;100310.42;713899;1206;114449;-83
2021/08/11 02:10:42;;;;;;;12.50;8.23;;;;;;;15.33;100.00;100325.13;714051;1182;114356;-82
2021/08/11 02:25:51;;;;;;;12.60;8.57;;;;;;;15.09;100.00;100334.70;714294;1206;114539;-83
2021/08/11 02:41:04;;;;;;;22.10;9.15;;;;;;;14.97;100.00;100339.47;714138;1203;114656;-84
2021/08/11 02:56:06;;;;;;;22.95;10.85;;;;;;;15.37;100.00;100321.16;714175;1200;115229;-84
2021/08/11 03:11:10;;;;;;;15.00;11.55;;;;;;;15.46;100.00;100322.80;714078;1199;116227;-83
2021/08/11 03:26:12;;;;;;;22.03;13.37;;;;;;;15.51;100.00;100332.89;714140;1181;114689;-83
2021/08/11 03:41:14;;;;;;;16.33;11.85;;;;;;;15.69;100.00;100324.79;715355;1205;114932;-84
2021/08/11 03:56:16;;;;;;;33.80;19.47;;;;;;;15.88;100.00;100304.28;714083;1201;114676;-84
2021/08/11 04:11:18;;;;;;;19.48;13.50;;;;;;;15.86;100.00;100311.55;715020;1202;115705;-83
2021/08/11 04:26:21;;;;;;;19.30;13.73;;;;;;;15.62;100.00;100352.88;714626;1179;114656;-83
2021/08/11 04:41:23;;;;;;;18.20;12.10;;;;;;;15.45;100.00;100418.14;714168;1203;115423;-85
2021/08/11 04:56:25;;;;;;;6.53;3.00;;;;;;;15.07;100.00;100423.88;714166;1205;116301;-82
2021/08/11 05:11:28;;;;;;;9.48;3.95;;;;;;;14.97;100.00;100394.94;714251;1200;114784;-84
2021/08/11 05:26:30;;;;;;;5.50;2.78;;;;;;;14.72;100.00;100464.52;714150;1202;115834;-83
2021/08/11 05:41:32;;;;;;;5.28;3.03;;;;;;;14.84;100.00;100401.68;714083;1205;114913;-85
2021/08/11 05:56:34;;;;;;;5.40;2.65;;;;;;;15.13;100.00;100402.06;714104;1202;114491;-80
2021/08/11 06:11:36;;;;;;;5.97;2.53;;;;;;;15.92;100.00;100390.24;714395;1202;114299;-80
2021/08/11 06:26:38;;;;;;;4.90;3.23;;;;;;;16.37;100.00;100430.34;715240;1203;114218;-84
2021/08/11 06:41:40;;;;;;;8.37;4.33;;;;;;;15.88;100.00;100449.77;715930;1184;114358;-84
2021/08/11 06:56:42;;;;;;;38.83;17.85;;;;;;;15.82;100.00;100461.00;716162;1204;115471;-85
2021/08/11 07:11:45;;;;;;;10.25;5.58;;;;;;;15.61;100.00;100468.41;715722;1180;115268;-80
2021/08/11 07:26:47;;;;;;;8.98;5.70;;;;;;;15.51;100.00;100472.20;714609;1177;114614;-79
2021/08/11 07:41:49;;;;;;;7.00;5.08;;;;;;;15.80;100.00;100456.70;714410;1200;114056;-88
2021/08/11 07:56:51;;;;;;;6.20;4.40;;;;;;;16.61;100.00;100466.50;715569;1200;114190;-79
2021/08/11 08:11:53;;;;;;;6.33;4.67;;;;;;;17.53;100.00;100476.52;714703;1200;114248;-78
2021/08/11 08:26:55;;;;;;;7.48;4.18;;;;;;;19.27;100.00;100473.78;714509;1202;114182;-79
2021/08/11 08:41:57;;;;;;;6.45;3.65;;;;;;;19.94;100.00;100474.46;715508;1174;114084;-79
2021/08/11 08:56:59;;;;;;;6.45;3.78;;;;;;;20.75;100.00;100499.81;715374;1200;115709;-80
2021/08/11 09:12:19;;;;;;;5.77;3.47;;;;;;;21.17;100.00;100490.95;715217;1202;114890;-78
2021/08/11 09:27:24;;;;;;;4.40;3.10;;;;;;;22.07;100.00;100493.39;714536;1203;115730;-80
2021/08/11 09:42:29;;;;;;;5.73;3.65;;;;;;;21.69;100.00;100489.46;715718;1193;114550;-79
2021/08/11 09:57:32;;;;;;;3.90;2.83;;;;;;;22.08;100.00;100498.52;716219;1203;115417;-79
2021/08/11 10:12:36;;;;;;;5.73;3.63;;;;;;;22.23;100.00;100468.91;714499;1200;115121;-87
2021/08/11 10:27:43;;;;;;;4.63;3.35;;;;;;;23.09;100.00;100488.44;715731;1177;114976;-78
2021/08/11 10:42:55;;;;;;;4.70;3.03;;;;;;;23.54;96.24;100486.77;714263;1202;115854;-79
2021/08/11 10:57:57;;;;;;;5.45;3.03;;;;;;;24.15;90.64;100489.81;714064;1203;114049;-80
2021/08/11 11:13:00;;;;;;;5.60;3.50;;;;;;;23.67;89.95;100486.66;713997;1200;115835;-79
2021/08/11 11:28:02;;;;;;;6.65;4.05;;;;;;;22.29;90.38;100491.33;714997;1200;114087;-86
2021/08/11 11:43:25;;;;;;;4.30;3.43;;;;;;;21.82;96.61;100494.00;715103;1200;114895;-87
2021/08/11 11:58:28;;;;;;;3.10;2.50;;;;;;;23.87;92.30;100483.02;714084;1203;115077;-82
2021/08/11 12:13:40;;;;;;;4.93;2.80;;;;;;;25.08;85.01;100471.90;714355;1200;114885;-79
2021/08/11 12:28:51;;;;;;;5.70;2.30;;;;;;;24.71;82.47;100483.48;714972;1200;114381;-80
2021/08/11 12:43:56;;;;;;;4.83;3.10;;;;;;;24.56;79.95;100496.41;714537;1201;114922;-80
2021/08/11 12:59:06;;;;;;;6.47;2.80;;;;;;;24.48;78.84;100494.03;715125;1200;113846;-74
2021/08/11 13:14:13;;;;;;;6.37;3.13;;;;;;;24.91;75.39;100485.12;713941;1180;113908;-81
2021/08/11 13:29:31;;;;;;;5.30;3.20;;;;;;;24.47;77.47;100489.70;714110;1200;113929;-88
2021/08/11 13:44:33;;;;;;;3.48;3.18;;;;;;;26.10;73.50;100474.74;715612;1200;115319;-91
2021/08/11 13:59:36;;;;;;;4.10;2.75;;;;;;;25.93;71.03;100514.89;715852;1178;114463;-87
2021/08/11 14:14:53;;;;;;;5.00;2.70;;;;;;;21.38;78.05;100600.22;715637;1178;114093;-85
2021/08/11 14:29:55;;;;;;;7.50;2.40;;;;;;;19.76;88.31;100609.80;715776;1205;113553;-82
2021/08/11 14:44:58;;;;;;;6.13;2.88;;;;;;;20.15;92.04;100615.75;714395;1202;114001;-83
2021/08/11 15:00:00;;;;;;;24.93;11.73;;;;;;;21.05;92.43;100600.88;715891;1202;114510;-85
2021/08/11 15:15:04;;;;;;;4.88;2.40;;;;;;;21.94;92.88;100572.46;716591;1205;115710;-76
2021/08/11 15:30:06;;;;;;;11.95;7.30;;;;;;;21.89;90.95;100579.45;714959;1202;115651;-76
2021/08/11 15:45:09;;;;;;;6.07;4.80;;;;;;;22.35;90.01;100591.20;714315;1200;114175;-78
2021/08/11 16:00:12;;;;;;;8.83;5.60;;;;;;;22.39;88.58;100584.45;715259;1200;115316;-77
2021/08/11 16:15:15;;;;;;;7.85;6.13;;;;;;;21.73;89.10;100573.45;714776;1177;114315;-78
2021/08/11 16:30:19;;;;;;;7.53;5.48;;;;;;;20.89;93.48;100569.19;714623;1175;113980;-83
2021/08/11 16:45:22;;;;;;;5.85;3.53;;;;;;;21.76;95.53;100575.73;715082;1200;113993;-83
2021/08/11 17:00:24;;;;;;;21.55;14.00;;;;;;;21.89;94.30;100584.78;714911;1193;115559;-80
2021/08/11 17:15:27;;;;;;;16.68;9.70;;;;;;;21.42;94.90;100601.47;715468;1200;114274;-86
2021/08/11 17:30:29;;;;;;;8.80;5.78;;;;;;;20.93;96.44;100613.10;715444;1202;115512;-78
2021/08/11 17:45:31;;;;;;;8.90;5.90;;;;;;;20.81;98.19;100620.81;715115;1177;113827;-84
2021/08/11 18:00:34;;;;;;;32.35;15.70;;;;;;;20.33;99.58;100634.77;715261;1205;113970;-75
2021/08/11 18:15:36;;;;;;;17.85;10.70;;;;;;;19.92;100.00;100632.73;715679;1177;114051;-76
2021/08/11 18:30:38;;;;;;;35.77;18.80;;;;;;;19.43;100.00;100640.31;714627;1180;114930;-77
2021/08/11 18:45:40;;;;;;;58.17;38.10;;;;;;;18.97;100.00;100647.66;714898;1177;114511;-80
2021/08/11 19:00:42;;;;;;;14.78;10.53;;;;;;;18.63;100.00;100665.69;715045;1177;114702;-77
2021/08/11 19:15:45;;;;;;;14.10;8.03;;;;;;;18.18;100.00;100686.75;714773;1203;114375;-77
2021/08/11 19:30:49;;;;;;;15.47;8.37;;;;;;;17.89;100.00;100700.66;714776;1202;115247;-80
2021/08/11 19:45:51;;;;;;;17.58;8.93;;;;;;;17.45;100.00;100708.11;714992;1174;114988;-80
2021/08/11 20:00:53;;;;;;;9.93;5.80;;;;;;;16.82;100.00;100719.45;713814;1200;115630;-80
2021/08/11 20:15:56;;;;;;;9.98;5.00;;;;;;;16.64;100.00;100734.50;713976;1205;114258;-80
2021/08/11 20:30:58;;;;;;;10.10;6.58;;;;;;;16.67;100.00;100737.80;714110;1177;114183;-80
2021/08/11 20:46:01;;;;;;;10.75;6.60;;;;;;;16.46;100.00;100745.22;714157;1205;114413;-80
2021/08/11 21:01:04;;;;;;;8.53;5.85;;;;;;;16.27;100.00;100754.29;713902;1200;115276;-80
2021/08/11 21:16:08;;;;;;;10.88;5.28;;;;;;;16.06;100.00;100761.81;714176;1202;115668;-81
2021/08/11 21:31:10;;;;;;;14.38;8.03;;;;;;;15.92;100.00;100779.95;713884;1202;115855;-80
2021/08/11 21:46:12;;;;;;;14.70;8.95;;;;;;;15.82;100.00;100778.41;713800;1206;114904;-80
2021/08/11 22:01:14;;;;;;;8.70;5.75;;;;;;;15.74;100.00;100763.29;713781;1200;114208;-80
2021/08/11 22:16:17;;;;;;;10.53;5.67;;;;;;;15.63;100.00;100770.50;713798;1178;114824;-80
2021/08/11 22:31:19;;;;;;;14.30;6.53;;;;;;;15.44;100.00;100787.42;713703;1202;115479;-81
2021/08/11 22:46:21;;;;;;;7.98;5.23;;;;;;;15.35;100.00;100784.86;713732;1200;114913;-80
2021/08/11 23:01:23;;;;;;;9.45;4.93;;;;;;;15.35;100.00;100798.07;713797;1199;115064;-81
2021/08/11 23:16:26;;;;;;;9.93;4.63;;;;;;;15.19;100.00;100791.70;713699;1204;114659;-81
2021/08/11 23:31:28;;;;;;;7.70;4.45;;;;;;;15.03;100.00;100810.89;713838;1205;115212;-81
2021/08/11 23:46:30;;;;;;;7.75;4.60;;;;;;;14.93;100.00;100812.77;713827;1205;115105;-81
